Wetterdaten: Woche 22.07.19 - 28.07.19 (KW30)
Datum Zeit Temp. Aussen Temp. o. S. +5cm Feuchte Auss Luftdruck Regen Sonnenschein Regendauer Solar Windben Empfang
22.07.2019 00:00 17,5 C 15,2 C 14,7 C 82 % 1023,5 hPa 0,0 l/m 0,00 h 0,00 h 0 W/m 0,0 km/h (0 Bft) 96,52 %
22.07.2019 01:00 16,5 C 14,4 C 14,1 C 84 % 1023,3 hPa 0,0 l/m 0,00 h 0,00 h 0 W/m 0,0 km/h (0 Bft) 97,65 %
22.07.2019 02:00 16,0 C 14,5 C 14,0 C 86 % 1023,1 hPa 0,0 l/m 0,00 h 0,00 h 0 W/m 0,0 km/h (0 Bft) 97,65 %
22.07.2019 03:00 15,7 C 14,2 C 13,9 C 88 % 1023,0 hPa 0,0 l/m 0,00 h 0,00 h 0 W/m 0,0 km/h (0 Bft) 96,73 %
22.07.2019 04:00 15,5 C 14,1 C 13,9 C 91 % 1022,9 hPa 0,0 l/m 0,00 h 0,00 h 0 W/m 0,7 km/h (0 Bft) 99,48 %
22.07.2019 05:00 15,2 C 14,1 C 13,5 C 92 % 1022,8 hPa 0,0 l/m 0,00 h 0,00 h 5 W/m 0,6 km/h (0 Bft) 96,01 %
22.07.2019 06:00 15,3 C 15,1 C 14,7 C 94 % 1022,6 hPa 0,0 l/m 0,00 h 0,00 h 23 W/m 4,9 km/h (1 Bft) 97,24 %
22.07.2019 07:00 16,1 C 17,1 C 16,4 C 91 % 1022,8 hPa 0,0 l/m 0,00 h 0,00 h 55 W/m 9,2 km/h (2 Bft) 98,57 %
22.07.2019 08:00 18,8 C 21,6 C 19,3 C 79 % 1023,2 hPa 0,0 l/m 0,00 h 0,00 h 80 W/m 12,1 km/h (2 Bft) 96,58 %
22.07.2019 09:00 21,9 C 25,8 C 26,3 C 68 % 1023,6 hPa 0,0 l/m 1,00 h 0,00 h 463 W/m 11,1 km/h (2 Bft) 98,36 %
22.07.2019 10:00 23,8 C 27,7 C 28,4 C 62 % 1023,9 hPa 0,0 l/m 1,00 h 0,00 h 615 W/m 13,2 km/h (3 Bft) 99,43 %
22.07.2019 11:00 25,6 C 29,8 C 30,6 C 58 % 1024,0 hPa 0,0 l/m 1,00 h 0,00 h 766 W/m 13,0 km/h (3 Bft) 95,37 %
22.07.2019 12:00 27,4 C 31,4 C 31,4 C 55 % 1024,1 hPa 0,0 l/m 1,00 h 0,00 h 808 W/m 13,8 km/h (3 Bft) 97,94 %
22.07.2019 13:00 27,7 C 31,3 C 31,8 C 54 % 1023,9 hPa 0,0 l/m 1,00 h 0,00 h 773 W/m 12,8 km/h (3 Bft) 98,72 %
22.07.2019 14:00 28,7 C 32,8 C 33,6 C 51 % 1023,5 hPa 0,0 l/m 1,00 h 0,00 h 917 W/m 14,4 km/h (3 Bft) 97,29 %
22.07.2019 15:00 29,7 C 34,2 C 29,0 C 50 % 1022,9 hPa 0,0 l/m 1,00 h 0,00 h 852 W/m 12,3 km/h (3 Bft) 97,44 %
22.07.2019 16:00 30,4 C 34,3 C 29,4 C 49 % 1022,6 hPa 0,0 l/m 1,00 h 0,00 h 747 W/m 11,6 km/h (2 Bft) 96,80 %
22.07.2019 17:00 31,1 C 34,3 C 29,8 C 48 % 1022,3 hPa 0,0 l/m 1,00 h 0,00 h 597 W/m 10,2 km/h (2 Bft) 97,32 %
22.07.2019 18:00 31,0 C 33,6 C 28,5 C 47 % 1022,0 hPa 0,0 l/m 1,00 h 0,00 h 428 W/m 9,2 km/h (2 Bft) 99,52 %
22.07.2019 19:00 30,2 C 30,3 C 26,4 C 50 % 1021,9 hPa 0,0 l/m 0,63 h 0,00 h 196 W/m 5,9 km/h (2 Bft) 96,87 %
22.07.2019 20:00 28,1 C 25,9 C 24,1 C 55 % 1021,9 hPa 0,0 l/m 0,00 h 0,00 h 31 W/m 3,0 km/h (1 Bft) 95,87 %
22.07.2019 21:00 26,2 C 23,3 C 21,5 C 61 % 1022,0 hPa 0,0 l/m 0,00 h 0,00 h 11 W/m 0,1 km/h (0 Bft) 99,79 %
22.07.2019 22:00 23,7 C 20,6 C 19,6 C 70 % 1022,2 hPa 0,0 l/m 0,00 h 0,00 h 0 W/m 0,0 km/h (0 Bft) 97,15 %
22.07.2019 23:00 21,8 C 19,1 C 18,4 C 77 % 1022,4 hPa 0,0 l/m 0,00 h 0,00 h 0 W/m 0,0 km/h (0 Bft) 97,37 %
23.07.2019 00:00 20,5 C 18,4 C 17,7 C 81 % 1022,4 hPa 0,0 l/m 0,00 h 0,00 h 0 W/m 0,2 km/h (0 Bft) 98,00 %
23.07.2019 01:00 19,6 C 17,5 C 17,0 C 83 % 1022,4 hPa 0,0 l/m 0,00 h 0,00 h 0 W/m 0,2 km/h (0 Bft) 95,80 %
23.07.2019 02:00 18,7 C 16,7 C 16,3 C 84 % 1022,2 hPa 0,0 l/m 0,00 h 0,00 h 0 W/m 0,0 km/h (0 Bft) 99,43 %
23.07.2019 03:00 18,0 C 16,5 C 15,9 C 86 % 1022,1 hPa 0,0 l/m 0,00 h 0,00 h 0 W/m 0,5 km/h (0 Bft) 96,99 %
23.07.2019 04:00 17,6 C 15,8 C 15,4 C 89 % 1022,2 hPa 0,0 l/m 0,00 h 0,00 h 0 W/m 0,0 km/h (0 Bft) 96,34 %
23.07.2019 05:00 17,1 C 15,2 C 15,0 C 89 % 1022,1 hPa 0,0 l/m 0,00 h 0,00 h 4 W/m 0,0 km/h (0 Bft) 99,03 %
23.07.2019 06:00 16,8 C 16,1 C 15,2 C 91 % 1022,1 hPa 0,0 l/m 0,00 h 0,00 h 14 W/m 0,6 km/h (0 Bft) 98,03 %
23.07.2019 07:00 17,5 C 18,3 C 17,2 C 94 % 1022,0 hPa 0,0 l/m 0,00 h 0,00 h 30 W/m 5,0 km/h (1 Bft) 95,80 %
23.07.2019 08:00 19,9 C 24,4 C 21,1 C 88 % 1021,9 hPa 0,0 l/m 0,03 h 0,00 h 67 W/m 7,2 km/h (2 Bft) 97,78 %
23.07.2019 09:00 25,3 C 30,2 C 32,5 C 70 % 1021,7 hPa 0,0 l/m 1,00 h 0,00 h 496 W/m 8,2 km/h (2 Bft) 96,32 %
23.07.2019 10:00 28,7 C 33,2 C 35,1 C 59 % 1021,6 hPa 0,0 l/m 1,00 h 0,00 h 669 W/m 10,0 km/h (2 Bft) 97,72 %
23.07.2019 11:00 30,5 C 34,9 C 36,7 C 54 % 1021,3 hPa 0,0 l/m 1,00 h 0,00 h 796 W/m 10,1 km/h (2 Bft) 98,15 %
23.07.2019 12:00 32,1 C 37,1 C 37,5 C 48 % 1020,7 hPa 0,0 l/m 1,00 h 0,00 h 893 W/m 11,7 km/h (2 Bft) 97,46 %
23.07.2019 13:00 33,2 C 38,0 C 40,3 C 45 % 1020,0 hPa 0,0 l/m 1,00 h 0,00 h 929 W/m 12,0 km/h (2 Bft) 99,08 %
23.07.2019 14:00 34,3 C 38,9 C 40,1 C 43 % 1019,4 hPa 0,0 l/m 1,00 h 0,00 h 922 W/m 10,0 km/h (2 Bft) 96,59 %
23.07.2019 15:00 34,7 C 39,3 C 34,4 C 41 % 1018,9 hPa 0,0 l/m 1,00 h 0,00 h 858 W/m 9,8 km/h (2 Bft) 96,72 %
23.07.2019 16:00 35,6 C 39,5 C 34,6 C 39 % 1018,4 hPa 0,0 l/m 1,00 h 0,00 h 749 W/m 8,2 km/h (2 Bft) 97,51 %
23.07.2019 17:00 36,1 C 39,1 C 34,6 C 38 % 1017,8 hPa 0,0 l/m 1,00 h 0,00 h 603 W/m 8,6 km/h (2 Bft) 99,64 %
23.07.2019 18:00 36,1 C 38,9 C 33,1 C 38 % 1017,3 hPa 0,0 l/m 1,00 h 0,00 h 437 W/m 7,2 km/h (2 Bft) 97,90 %
23.07.2019 19:00 35,3 C 34,9 C 29,9 C 39 % 1016,9 hPa 0,0 l/m 0,60 h 0,00 h 195 W/m 5,7 km/h (1 Bft) 97,63 %
23.07.2019 20:00 32,2 C 28,9 C 25,4 C 53 % 1016,5 hPa 0,0 l/m 0,00 h 0,00 h 37 W/m 1,4 km/h (1 Bft) 95,96 %
23.07.2019 21:00 28,8 C 25,7 C 22,7 C 63 % 1016,5 hPa 0,0 l/m 0,00 h 0,00 h 13 W/m 0,2 km/h (0 Bft) 96,99 %
23.07.2019 22:00 26,8 C 24,7 C 21,8 C 62 % 1016,6 hPa 0,0 l/m 0,00 h 0,00 h 0 W/m 2,3 km/h (1 Bft) 99,51 %
23.07.2019 23:00 25,7 C 23,3 C 21,4 C 67 % 1016,7 hPa 0,0 l/m 0,00 h 0,00 h 0 W/m 0,5 km/h (0 Bft) 96,42 %
24.07.2019 00:00 24,5 C 22,1 C 20,6 C 70 % 1016,4 hPa 0,0 l/m 0,00 h 0,00 h 0 W/m 0,2 km/h (0 Bft) 96,27 %
24.07.2019 01:00 23,3 C 21,1 C 19,7 C 74 % 1016,1 hPa 0,0 l/m 0,00 h 0,00 h 0 W/m 0,4 km/h (0 Bft) 99,65 %
24.07.2019 02:00 22,3 C 20,0 C 19,1 C 78 % 1015,8 hPa 0,0 l/m 0,00 h 0,00 h 0 W/m 0,0 km/h (0 Bft) 96,71 %
24.07.2019 03:00 21,9 C 22,0 C 20,5 C 78 % 1015,4 hPa 0,0 l/m 0,00 h 0,00 h 0 W/m 5,9 km/h (2 Bft) 96,93 %
24.07.2019 04:00 22,9 C 21,2 C 19,6 C 74 % 1014,8 hPa 0,0 l/m 0,00 h 0,00 h 0 W/m 2,2 km/h (1 Bft) 98,69 %
24.07.2019 05:00 21,9 C 20,8 C 18,6 C 74 % 1014,8 hPa 0,0 l/m 0,00 h 0,00 h 5 W/m 3,1 km/h (1 Bft) 95,84 %
24.07.2019 06:00 21,8 C 21,2 C 20,2 C 74 % 1014,8 hPa 0,0 l/m 0,00 h 0,00 h 17 W/m 6,6 km/h (2 Bft) 98,45 %
24.07.2019 07:00 22,5 C 22,6 C 21,8 C 74 % 1014,9 hPa 0,0 l/m 0,00 h 0,00 h 37 W/m 8,4 km/h (2 Bft) 97,66 %
24.07.2019 08:00 25,0 C 28,3 C 25,4 C 67 % 1014,8 hPa 0,0 l/m 0,03 h 0,00 h 74 W/m 10,5 km/h (2 Bft) 96,80 %
24.07.2019 09:00 29,4 C 33,1 C 34,6 C 56 % 1014,7 hPa 0,0 l/m 1,00 h 0,00 h 496 W/m 14,2 km/h (3 Bft) 98,55 %
24.07.2019 10:00 32,1 C 36,3 C 38,5 C 49 % 1014,6 hPa 0,0 l/m 1,00 h 0,00 h 664 W/m 13,1 km/h (3 Bft) 96,01 %
24.07.2019 11:00 34,4 C 38,5 C 40,3 C 44 % 1014,4 hPa 0,0 l/m 1,00 h 0,00 h 801 W/m 14,8 km/h (3 Bft) 98,37 %
24.07.2019 12:00 36,0 C 40,4 C 40,8 C 40 % 1014,0 hPa 0,0 l/m 1,00 h 0,00 h 888 W/m 16,1 km/h (3 Bft) 99,24 %
24.07.2019 13:00 37,0 C 41,3 C 43,1 C 36 % 1013,7 hPa 0,0 l/m 1,00 h 0,00 h 915 W/m 14,3 km/h (3 Bft) 95,26 %
24.07.2019 14:00 37,8 C 42,1 C 42,3 C 35 % 1013,4 hPa 0,0 l/m 1,00 h 0,00 h 889 W/m 14,0 km/h (3 Bft) 97,05 %
24.07.2019 15:00 38,7 C 43,4 C 38,1 C 34 % 1013,1 hPa 0,0 l/m 1,00 h 0,00 h 824 W/m 9,3 km/h (2 Bft) 97,62 %
24.07.2019 16:00 39,5 C 43,1 C 38,2 C 31 % 1012,9 hPa 0,0 l/m 1,00 h 0,00 h 712 W/m 8,9 km/h (2 Bft) 99,22 %
24.07.2019 17:00 40,0 C 43,0 C 37,4 C 32 % 1012,8 hPa 0,0 l/m 1,00 h 0,00 h 558 W/m 6,3 km/h (2 Bft) 95,51 %
24.07.2019 18:00 39,9 C 41,8 C 35,8 C 32 % 1012,5 hPa 0,0 l/m 1,00 h 0,00 h 376 W/m 5,4 km/h (1 Bft) 98,03 %
24.07.2019 19:00 38,5 C 38,1 C 30,5 C 38 % 1012,6 hPa 0,0 l/m 0,57 h 0,00 h 162 W/m 1,8 km/h (1 Bft) 99,01 %
24.07.2019 20:00 34,8 C 31,5 C 27,1 C 52 % 1012,7 hPa 0,0 l/m 0,00 h 0,00 h 43 W/m 0,4 km/h (0 Bft) 97,94 %
24.07.2019 21:00 31,4 C 28,4 C 25,8 C 57 % 1013,2 hPa 0,0 l/m 0,00 h 0,00 h 12 W/m 2,4 km/h (1 Bft) 97,01 %
24.07.2019 22:00 29,5 C 27,2 C 25,9 C 60 % 1014,4 hPa 0,0 l/m 0,00 h 0,00 h 0 W/m 3,3 km/h (1 Bft) 95,23 %
24.07.2019 23:00 28,0 C 25,8 C 24,4 C 65 % 1014,8 hPa 0,0 l/m 0,00 h 0,00 h 0 W/m 0,0 km/h (0 Bft) 99,57 %
25.07.2019 00:00 26,7 C 24,3 C 23,0 C 68 % 1014,9 hPa 0,0 l/m 0,00 h 0,00 h 0 W/m 0,0 km/h (0 Bft) 97,63 %
25.07.2019 01:00 25,4 C 23,0 C 21,9 C 72 % 1014,8 hPa 0,0 l/m 0,00 h 0,00 h 0 W/m 0,0 km/h (0 Bft) 95,23 %
25.07.2019 02:00 24,3 C 22,1 C 21,1 C 76 % 1014,9 hPa 0,0 l/m 0,00 h 0,00 h 0 W/m 0,0 km/h (0 Bft) 99,22 %
25.07.2019 03:00 23,3 C 21,1 C 20,4 C 78 % 1015,0 hPa 0,0 l/m 0,00 h 0,00 h 0 W/m 0,0 km/h (0 Bft) 98,15 %
25.07.2019 04:00 22,3 C 20,3 C 19,6 C 81 % 1014,8 hPa 0,0 l/m 0,00 h 0,00 h 0 W/m 0,0 km/h (0 Bft) 95,09 %
25.07.2019 05:00 21,5 C 19,6 C 19,1 C 83 % 1014,9 hPa 0,0 l/m 0,00 h 0,00 h 5 W/m 0,0 km/h (0 Bft) 99,22 %
25.07.2019 06:00 21,0 C 19,9 C 19,4 C 86 % 1015,2 hPa 0,0 l/m 0,00 h 0,00 h 20 W/m 0,0 km/h (0 Bft) 97,02 %
25.07.2019 07:00 21,2 C 22,0 C 20,6 C 89 % 1015,3 hPa 0,0 l/m 0,00 h 0,00 h 49 W/m 0,0 km/h (0 Bft) 96,87 %
25.07.2019 08:00 23,3 C 27,0 C 24,2 C 86 % 1015,3 hPa 0,0 l/m 0,03 h 0,00 h 99 W/m 3,7 km/h (1 Bft) 98,00 %
25.07.2019 09:00 27,9 C 31,7 C 32,8 C 70 % 1015,2 hPa 0,0 l/m 1,00 h 0,00 h 428 W/m 12,3 km/h (3 Bft) 97,63 %
25.07.2019 10:00 31,1 C 34,8 C 36,4 C 61 % 1015,1 hPa 0,0 l/m 1,00 h 0,00 h 593 W/m 13,5 km/h (3 Bft) 97,37 %
25.07.2019 11:00 33,6 C 37,9 C 38,6 C 55 % 1014,7 hPa 0,0 l/m 1,00 h 0,00 h 723 W/m 13,2 km/h (3 Bft) 97,01 %
25.07.2019 12:00 36,0 C 41,2 C 40,1 C 50 % 1014,4 hPa 0,0 l/m 1,00 h 0,00 h 811 W/m 9,5 km/h (2 Bft) 97,46 %
25.07.2019 13:00 37,9 C 43,2 C 43,5 C 45 % 1014,1 hPa 0,0 l/m 1,00 h 0,00 h 853 W/m 9,5 km/h (2 Bft) 99,86 %
25.07.2019 14:00 39,5 C 44,5 C 43,8 C 39 % 1013,6 hPa 0,0 l/m 1,00 h 0,00 h 836 W/m 10,0 km/h (2 Bft) 96,44 %
25.07.2019 15:00 40,8 C 45,2 C 40,1 C 35 % 1013,1 hPa 0,0 l/m 1,00 h 0,00 h 795 W/m 9,3 km/h (2 Bft) 97,08 %
25.07.2019 16:00 41,4 C 45,1 C 39,9 C 34 % 1012,6 hPa 0,0 l/m 1,00 h 0,00 h 684 W/m 8,6 km/h (2 Bft) 95,88 %
25.07.2019 17:00 41,5 C 44,8 C 38,6 C 33 % 1012,3 hPa 0,0 l/m 1,00 h 0,00 h 540 W/m 6,8 km/h (2 Bft) 97,94 %
25.07.2019 18:00 40,8 C 41,9 C 37,2 C 32 % 1011,8 hPa 0,0 l/m 0,93 h 0,00 h 340 W/m 10,1 km/h (2 Bft) 96,28 %
25.07.2019 19:00 38,5 C 35,8 C 31,1 C 44 % 1011,6 hPa 0,0 l/m 0,00 h 0,00 h 86 W/m 2,3 km/h (1 Bft) 98,43 %
25.07.2019 20:00 34,0 C 31,2 C 27,1 C 54 % 1011,4 hPa 0,0 l/m 0,00 h 0,00 h 33 W/m 1,2 km/h (1 Bft) 96,58 %
25.07.2019 21:00 32,1 C 29,5 C 26,3 C 54 % 1011,6 hPa 0,0 l/m 0,00 h 0,00 h 9 W/m 2,3 km/h (1 Bft) 96,23 %
25.07.2019 22:00 30,1 C 27,0 C 24,8 C 63 % 1011,5 hPa 0,0 l/m 0,00 h 0,00 h 0 W/m 0,1 km/h (0 Bft) 98,72 %
25.07.2019 23:00 28,1 C 26,0 C 24,3 C 65 % 1011,5 hPa 0,0 l/m 0,00 h 0,00 h 0 W/m 2,0 km/h (1 Bft) 98,22 %
26.07.2019 00:00 27,1 C 25,0 C 23,4 C 67 % 1011,6 hPa 0,0 l/m 0,00 h 0,00 h 0 W/m 0,6 km/h (0 Bft) 97,25 %
26.07.2019 01:00 26,0 C 23,8 C 22,4 C 70 % 1011,8 hPa 0,0 l/m 0,00 h 0,00 h 0 W/m 0,0 km/h (0 Bft) 95,74 %
26.07.2019 02:00 24,8 C 22,7 C 21,5 C 73 % 1011,7 hPa 0,0 l/m 0,00 h 0,00 h 0 W/m 0,0 km/h (0 Bft) 99,15 %
26.07.2019 03:00 23,8 C 22,1 C 20,9 C 75 % 1011,4 hPa 0,0 l/m 0,00 h 0,00 h 0 W/m 0,0 km/h (0 Bft) 98,29 %
26.07.2019 04:00 23,0 C 21,2 C 20,1 C 77 % 1010,8 hPa 0,0 l/m 0,00 h 0,00 h 0 W/m 0,0 km/h (0 Bft) 95,00 %
26.07.2019 05:00 22,3 C 20,9 C 19,7 C 78 % 1010,6 hPa 0,0 l/m 0,00 h 0,00 h 5 W/m 1,6 km/h (1 Bft) 99,64 %
26.07.2019 06:00 22,1 C 21,6 C 20,3 C 79 % 1010,6 hPa 0,0 l/m 0,00 h 0,00 h 22 W/m 2,0 km/h (1 Bft) 97,61 %
26.07.2019 07:00 22,5 C 23,0 C 21,0 C 80 % 1010,5 hPa 0,0 l/m 0,00 h 0,00 h 42 W/m 1,2 km/h (1 Bft) 96,58 %
26.07.2019 08:00 24,4 C 29,3 C 24,5 C 78 % 1010,5 hPa 0,0 l/m 0,03 h 0,00 h 91 W/m 4,7 km/h (1 Bft) 98,57 %
26.07.2019 09:00 29,5 C 34,9 C 36,5 C 59 % 1010,3 hPa 0,0 l/m 1,00 h 0,00 h 449 W/m 7,6 km/h (2 Bft) 96,89 %
26.07.2019 10:00 32,9 C 37,1 C 38,7 C 47 % 1009,8 hPa 0,0 l/m 1,00 h 0,00 h 615 W/m 9,9 km/h (2 Bft) 98,15 %
26.07.2019 11:00 35,2 C 40,0 C 40,2 C 41 % 1009,1 hPa 0,0 l/m 1,00 h 0,00 h 759 W/m 11,0 km/h (2 Bft) 97,22 %
26.07.2019 12:00 37,3 C 42,7 C 41,3 C 38 % 1008,5 hPa 0,0 l/m 1,00 h 0,00 h 851 W/m 11,8 km/h (2 Bft) 96,98 %
26.07.2019 13:00 39,1 C 44,4 C 44,4 C 36 % 1007,8 hPa 0,0 l/m 1,00 h 0,00 h 894 W/m 10,5 km/h (2 Bft) 98,43 %
26.07.2019 14:00 39,8 C 43,2 C 42,3 C 35 % 1007,0 hPa 0,0 l/m 0,87 h 0,00 h 661 W/m 10,1 km/h (2 Bft) 98,08 %
26.07.2019 15:00 39,3 C 43,3 C 38,9 C 36 % 1006,1 hPa 0,0 l/m 1,00 h 0,00 h 724 W/m 8,9 km/h (2 Bft) 94,97 %
26.07.2019 16:00 38,5 C 37,9 C 35,8 C 37 % 1005,6 hPa 0,0 l/m 0,23 h 0,00 h 251 W/m 9,9 km/h (2 Bft) 97,44 %
26.07.2019 17:00 35,1 C 33,1 C 32,7 C 43 % 1005,9 hPa 0,0 l/m 0,00 h 0,00 h 113 W/m 15,3 km/h (3 Bft) 98,50 %
26.07.2019 18:00 32,3 C 30,8 C 30,8 C 51 % 1006,5 hPa 0,0 l/m 0,00 h 0,00 h 78 W/m 9,2 km/h (2 Bft) 97,53 %
26.07.2019 19:00 31,2 C 29,6 C 29,4 C 58 % 1006,6 hPa 0,0 l/m 0,00 h 0,00 h 51 W/m 6,6 km/h (2 Bft) 97,22 %
26.07.2019 20:00 29,5 C 27,5 C 27,6 C 64 % 1006,0 hPa 0,0 l/m 0,00 h 0,00 h 21 W/m 7,0 km/h (2 Bft) 97,90 %
26.07.2019 21:00 27,9 C 26,2 C 26,1 C 68 % 1005,9 hPa 0,0 l/m 0,00 h 0,00 h 5 W/m 9,0 km/h (2 Bft) 98,08 %
26.07.2019 22:00 27,1 C 25,7 C 25,4 C 70 % 1005,6 hPa 0,0 l/m 0,00 h 0,00 h 0 W/m 5,4 km/h (1 Bft) 96,70 %
26.07.2019 23:00 26,5 C 24,5 C 24,4 C 72 % 1005,5 hPa 0,0 l/m 0,00 h 0,00 h 0 W/m 2,5 km/h (1 Bft) 98,09 %
27.07.2019 00:00 25,5 C 24,0 C 24,0 C 75 % 1005,1 hPa 0,0 l/m 0,00 h 0,00 h 0 W/m 3,5 km/h (1 Bft) 98,23 %
27.07.2019 01:00 24,7 C 22,8 C 23,1 C 80 % 1004,9 hPa 0,0 l/m 0,00 h 0,00 h 0 W/m 6,1 km/h (2 Bft) 97,13 %
27.07.2019 02:00 23,6 C 21,9 C 22,0 C 83 % 1004,4 hPa 0,0 l/m 0,00 h 0,00 h 0 W/m 1,2 km/h (1 Bft) 97,94 %
27.07.2019 03:00 22,9 C 21,3 C 21,5 C 83 % 1004,1 hPa 0,0 l/m 0,00 h 0,00 h 0 W/m 0,6 km/h (0 Bft) 97,93 %
27.07.2019 04:00 22,4 C 21,1 C 20,9 C 84 % 1003,8 hPa 0,0 l/m 0,00 h 0,00 h 0 W/m 2,0 km/h (1 Bft) 96,75 %
27.07.2019 05:00 22,2 C 20,9 C 20,9 C 86 % 1003,3 hPa 0,0 l/m 0,00 h 0,00 h 10 W/m 0,3 km/h (0 Bft) 97,76 %
27.07.2019 06:00 22,0 C 21,1 C 21,0 C 87 % 1003,4 hPa 0,0 l/m 0,27 h 0,00 h 29 W/m 1,1 km/h (1 Bft) 97,82 %
27.07.2019 07:00 22,1 C 21,8 C 21,4 C 89 % 1003,2 hPa 0,0 l/m 0,00 h 0,00 h 72 W/m 3,7 km/h (1 Bft) 97,50 %
27.07.2019 08:00 22,4 C 23,0 C 22,5 C 88 % 1003,2 hPa 0,0 l/m 0,00 h 0,00 h 119 W/m 4,3 km/h (1 Bft) 96,02 %
27.07.2019 09:00 23,8 C 27,0 C 27,3 C 83 % 1003,5 hPa 0,0 l/m 0,88 h 0,00 h 355 W/m 6,8 km/h (2 Bft) 98,67 %
27.07.2019 10:00 25,7 C 29,1 C 29,8 C 77 % 1003,4 hPa 0,0 l/m 0,97 h 0,00 h 509 W/m 8,6 km/h (2 Bft) 98,20 %
27.07.2019 11:00 26,9 C 29,7 C 29,7 C 73 % 1002,9 hPa 0,0 l/m 0,83 h 0,00 h 562 W/m 10,1 km/h (2 Bft) 95,66 %
27.07.2019 12:00 27,3 C 29,4 C 28,9 C 70 % 1002,6 hPa 0,0 l/m 0,70 h 0,00 h 526 W/m 12,6 km/h (3 Bft) 98,99 %
27.07.2019 13:00 27,0 C 28,3 C 27,6 C 71 % 1002,5 hPa 0,0 l/m 0,40 h 0,00 h 409 W/m 10,9 km/h (2 Bft) 98,08 %
27.07.2019 14:00 26,6 C 26,9 C 26,4 C 72 % 1002,3 hPa 0,0 l/m 0,23 h 0,00 h 340 W/m 14,8 km/h (3 Bft) 96,15 %
27.07.2019 15:00 26,8 C 28,5 C 27,1 C 72 % 1001,9 hPa 0,0 l/m 0,57 h 0,00 h 437 W/m 11,7 km/h (2 Bft) 98,51 %
27.07.2019 16:00 26,1 C 24,8 C 24,8 C 75 % 1001,8 hPa 0,0 l/m 0,00 h 0,40 h 127 W/m 8,8 km/h (2 Bft) 97,73 %
27.07.2019 17:00 24,9 C 23,7 C 23,8 C 78 % 1002,2 hPa 0,0 l/m 0,00 h 0,00 h 61 W/m 12,5 km/h (3 Bft) 97,59 %
27.07.2019 18:00 23,9 C 22,8 C 22,9 C 80 % 1001,8 hPa 0,0 l/m 0,00 h 0,00 h 45 W/m 8,2 km/h (2 Bft) 97,32 %
27.07.2019 19:00 23,1 C 22,2 C 22,3 C 85 % 1001,3 hPa 0,0 l/m 0,00 h 0,00 h 59 W/m 6,5 km/h (2 Bft) 98,08 %
27.07.2019 20:00 22,6 C 21,4 C 21,5 C 86 % 1001,6 hPa 0,0 l/m 0,00 h 0,00 h 19 W/m 3,3 km/h (1 Bft) 97,57 %
27.07.2019 21:00 22,1 C 20,6 C 20,7 C 88 % 1002,1 hPa 0,2 l/m 0,00 h 0,17 h 5 W/m 2,3 km/h (1 Bft) 96,09 %
27.07.2019 22:00 21,4 C 18,9 C 18,9 C 91 % 1002,3 hPa 0,2 l/m 0,00 h 0,23 h 0 W/m 1,2 km/h (1 Bft) 99,00 %
27.07.2019 23:00 20,6 C 18,4 C 18,4 C 94 % 1001,9 hPa 0,4 l/m 0,00 h 0,50 h 0 W/m 1,5 km/h (1 Bft) 98,91 %
28.07.2019 00:00 20,0 C 18,3 C 18,3 C 95 % 1001,7 hPa 0,0 l/m 0,00 h 0,00 h 0 W/m 1,7 km/h (1 Bft) 94,05 %
28.07.2019 01:00 19,6 C 18,3 C 18,1 C 96 % 1001,5 hPa 0,0 l/m 0,00 h 0,00 h 0 W/m 2,3 km/h (1 Bft) 99,57 %
28.07.2019 02:00 19,4 C 18,3 C 18,1 C 97 % 1001,1 hPa 0,0 l/m 0,00 h 0,00 h 0 W/m 2,8 km/h (1 Bft) 99,28 %
28.07.2019 03:00 19,3 C 18,3 C 17,9 C 98 % 1000,8 hPa 0,0 l/m 0,00 h 0,00 h 0 W/m 2,7 km/h (1 Bft) 94,45 %
28.07.2019 04:00 19,2 C 18,0 C 17,8 C 98 % 1000,5 hPa 0,0 l/m 0,00 h 0,13 h 0 W/m 2,5 km/h (1 Bft) 99,22 %
28.07.2019 05:00 19,2 C 17,8 C 17,8 C 98 % 1000,7 hPa 0,0 l/m 0,00 h 0,13 h 0 W/m 1,5 km/h (1 Bft) 98,23 %
28.07.2019 06:00 19,1 C 17,8 C 17,8 C 98 % 1000,8 hPa 0,0 l/m 0,00 h 0,43 h 6 W/m 1,3 km/h (1 Bft) 96,25 %
28.07.2019 07:00 19,2 C 18,0 C 17,8 C 98 % 1001,0 hPa 0,2 l/m 0,00 h 0,47 h 11 W/m 0,9 km/h (0 Bft) 97,64 %
28.07.2019 08:00 19,2 C 18,1 C 17,8 C 98 % 1001,3 hPa 0,0 l/m 0,00 h 0,37 h 16 W/m 2,2 km/h (1 Bft) 97,65 %
28.07.2019 09:00 19,2 C 18,3 C 18,0 C 99 % 1001,5 hPa 0,0 l/m 0,00 h 0,00 h 33 W/m 2,1 km/h (1 Bft) 97,78 %
28.07.2019 10:00 19,5 C 18,9 C 18,6 C 99 % 1001,7 hPa 0,0 l/m 0,00 h 0,10 h 69 W/m 2,0 km/h (1 Bft) 96,31 %
28.07.2019 11:00 19,7 C 19,6 C 19,2 C 99 % 1002,1 hPa 0,0 l/m 0,00 h 0,00 h 86 W/m 0,8 km/h (0 Bft) 97,86 %
28.07.2019 12:00 19,7 C 19,8 C 19,5 C 98 % 1002,4 hPa 0,0 l/m 0,00 h 0,00 h 89 W/m 4,6 km/h (1 Bft) 97,96 %
28.07.2019 13:00 19,9 C 19,5 C 19,4 C 96 % 1002,9 hPa 0,0 l/m 0,00 h 0,00 h 55 W/m 5,9 km/h (2 Bft) 95,11 %
28.07.2019 14:00 19,7 C 18,5 C 18,3 C 95 % 1003,5 hPa 0,4 l/m 0,00 h 0,47 h 52 W/m 8,3 km/h (2 Bft) 98,60 %
28.07.2019 15:00 19,3 C 18,1 C 17,8 C 97 % 1004,1 hPa 0,0 l/m 0,00 h 0,03 h 63 W/m 7,8 km/h (2 Bft) 98,78 %
28.07.2019 16:00 19,0 C 17,7 C 17,4 C 97 % 1004,6 hPa 0,0 l/m 0,00 h 0,27 h 49 W/m 8,0 km/h (2 Bft) 95,44 %
28.07.2019 17:00 18,7 C 17,8 C 17,2 C 97 % 1005,1 hPa 0,0 l/m 0,00 h 0,00 h 32 W/m 8,5 km/h (2 Bft) 98,13 %
28.07.2019 18:00 18,6 C 18,6 C 17,6 C 96 % 1005,6 hPa 0,0 l/m 0,00 h 0,00 h 67 W/m 10,9 km/h (2 Bft) 98,37 %
28.07.2019 19:00 18,7 C 17,9 C 17,3 C 95 % 1006,5 hPa 0,0 l/m 0,00 h 0,00 h 25 W/m 11,8 km/h (2 Bft) 96,47 %
28.07.2019 20:00 18,2 C 17,2 C 16,9 C 95 % 1007,4 hPa 0,0 l/m 0,00 h 0,00 h 8 W/m 10,7 km/h (2 Bft) 97,69 %
28.07.2019 21:00 18,0 C 17,1 C 17,1 C 95 % 1008,1 hPa 0,0 l/m 0,00 h 0,00 h 0 W/m 8,8 km/h (2 Bft) 97,50 %
28.07.2019 22:00 17,8 C 16,9 C 16,7 C 95 % 1008,7 hPa 0,0 l/m 0,00 h 0,00 h 0 W/m 6,3 km/h (2 Bft) 97,32 %
28.07.2019 23:00 17,7 C 16,8 C 16,7 C 95 % 1009,2 hPa 0,0 l/m 0,00 h 0,00 h 0 W/m 3,3 km/h (1 Bft) 97,09 %
Min-Datum _ 22.07.19 22.07.19 22.07.19 24.07.19 28.07.19 - - - - 22.07.19 25.07.19
_ Min-Zeit 05:42 03:06 05:04 16:04 04:10 - - - - 00:00 06:56
Minimum _ 15,1 C 13,9 C 13,3 C 30 % 1000,4 hPa - - - - 0,0 km/h (0 Bft) 84,78 %
Max-Datum _ 25.07.19 25.07.19 26.07.19 28.07.19 22.07.19 27.07.19 22.07.19 28.07.19 22.07.19 26.07.19 22.07.19
_ Max-Zeit 16:22 15:08 14:06 09:00 12:24 23:18 12:08 06:08 13:50 17:16 01:04
Maximum _ 41,5 C 46,7 C 46,7 C 99 % 1024,2 hPa 0,4 l/m 0,07 h 0,07 h 964 W/m 38,6 km/h
S (5 Bft)
100,00 %
Durchschnitt _ 26,3 C 26,7 C 25,6 C 69 % 1012,3 hPa #1,4 l/m #53:49 h #3:42 h 337 W/m 5,7 km/h (1 Bft) 97,51 %
© 2019 W. Hausmann